Time;durP1;ratioP1;P1;durP2;ratioP2;P2;SDS_P1;SDS_P2;PMS_P1;PMS_P2;Temp;Humidity;BMP_temperature;BMP_pressure;BME280_temperature;BME280_humidity;BME280_pressure;Samples;Min_cycle;Max_cycle;Signal;HPM_P1;HPM_P2
2022/11/30 00:01:41;;;;;;;;;;;;;;;-10.92;79.36;102373.47;6182231;23;19920;-68
2022/11/30 00:04:07;;;;;;;;;;;;;;;-10.97;79.82;102368.38;6176544;23;19920;-68
2022/11/30 00:06:32;;;;;;;;;;;;;;;-11.00;79.81;102361.44;6147883;23;19927;-68
2022/11/30 00:08:58;;;;;;;;;;;;;;;-10.99;79.99;102370.25;6182624;23;19958;-67
2022/11/30 00:11:25;;;;;;;;;;;;;;;-11.00;79.78;102358.81;6147360;23;19920;-68
2022/11/30 00:13:50;;;;;;;;;;;;;;;-10.98;80.18;102361.38;6173728;23;19920;-68
2022/11/30 00:16:16;;;;;;;;;;;;;;;-10.99;79.92;102359.66;6147202;23;19920;-68
2022/11/30 00:18:43;;;;;;;;;;;;;;;-11.00;79.75;102360.59;6182213;23;19927;-68
2022/11/30 00:21:10;;;;;;;;;;;;;;;-11.02;80.04;102358.03;6182170;23;19920;-68
2022/11/30 00:23:37;;;;;;;;;;;;;;;-11.01;80.36;102358.84;6182069;23;20344;-67
2022/11/30 00:26:04;;;;;;;;;;;;;;;-11.01;79.87;102353.56;6205986;23;19920;-68
2022/11/30 00:28:31;;;;;;;;;;;;;;;-11.03;80.03;102364.22;6182612;23;20307;-68
2022/11/30 00:30:57;;;;;;;;;;;;;;;-11.02;80.19;102359.78;6172879;23;19920;-68
2022/11/30 00:33:23;;;;;;;;;;;;;;;-11.04;80.02;102362.53;6182577;23;19920;-68
2022/11/30 00:35:55;;;;;;;;;;;;;;;-11.04;79.88;102356.38;6145629;23;20062;-68
2022/11/30 00:38:21;;;;;;;;;;;;;;;-11.04;79.97;102346.66;6184256;23;19920;-68
2022/11/30 00:40:47;;;;;;;;;;;;;;;-11.02;79.90;102341.28;6198155;23;20315;-68
2022/11/30 00:43:12;;;;;;;;;;;;;;;-11.03;79.78;102344.88;6171660;23;20343;-68
2022/11/30 00:45:39;;;;;;;;;;;;;;;-11.05;80.02;102354.66;6183119;23;20352;-69
2022/11/30 00:48:05;;;;;;;;;;;;;;;-11.06;79.73;102351.16;6174537;23;19920;-68
2022/11/30 00:50:31;;;;;;;;;;;;;;;-11.09;79.80;102348.63;6182814;23;20354;-68
2022/11/30 00:52:58;;;;;;;;;;;;;;;-11.11;79.95;102347.84;6147583;23;19934;-68
2022/11/30 00:55:24;;;;;;;;;;;;;;;-11.14;80.07;102343.59;6176200;23;19927;-68
2022/11/30 00:57:50;;;;;;;;;;;;;;;-11.15;79.94;102344.53;6182919;23;19920;-66
2022/11/30 01:00:16;;;;;;;;;;;;;;;-11.28;79.64;102324.88;6182278;23;19938;-66
2022/11/30 01:02:42;;;;;;;;;;;;;;;-11.19;80.02;102339.44;6183487;23;19927;-66
2022/11/30 01:05:07;;;;;;;;;;;;;;;-11.21;79.65;102341.28;6171357;23;19927;-66
2022/11/30 01:07:33;;;;;;;;;;;;;;;-11.32;79.99;102325.91;6183497;23;19920;-66
2022/11/30 01:10:00;;;;;;;;;;;;;;;-11.23;80.00;102340.50;6174864;23;19920;-65
2022/11/30 01:12:26;;;;;;;;;;;;;;;-11.23;80.13;102335.22;6147461;23;19920;-65
2022/11/30 01:14:51;;;;;;;;;;;;;;;-11.23;79.69;102337.88;6183732;23;20410;-66
2022/11/30 01:17:17;;;;;;;;;;;;;;;-11.22;79.79;102342.22;6144684;23;19927;-65
2022/11/30 01:19:43;;;;;;;;;;;;;;;-11.23;79.65;102345.81;6148569;23;19920;-65
2022/11/30 01:22:09;;;;;;;;;;;;;;;-11.23;80.12;102337.88;6158053;23;19924;-66
2022/11/30 01:24:34;;;;;;;;;;;;;;;-11.23;79.77;102336.06;6185366;23;20289;-65
2022/11/30 01:27:02;;;;;;;;;;;;;;;-11.20;80.02;102335.09;6173268;23;19943;-65
2022/11/30 01:29:29;;;;;;;;;;;;;;;-11.45;80.05;102297.44;6146520;23;20346;-65
2022/11/30 01:31:54;;;;;;;;;;;;;;;-11.22;80.13;102340.44;6172991;23;19974;-65
2022/11/30 01:34:20;;;;;;;;;;;;;;;-11.22;79.89;102344.88;6172918;23;20002;-66
2022/11/30 01:36:47;;;;;;;;;;;;;;;-11.22;79.84;102340.44;6172829;23;19920;-65
2022/11/30 01:39:13;;;;;;;;;;;;;;;-11.23;79.78;102337.88;6172586;23;19927;-65
2022/11/30 01:41:39;;;;;;;;;;;;;;;-11.26;80.02;102331.78;6173856;23;19923;-65
2022/11/30 01:44:25;;;;;;;;;;;;;;;-11.24;80.11;102334.34;6175297;23;20348;-65
2022/11/30 01:46:53;;;;;;;;;;;;;;;-11.23;80.09;102335.22;6176753;23;19999;-66
2022/11/30 01:49:22;;;;;;;;;;;;;;;-11.25;80.04;102333.50;6174003;23;19975;-66
2022/11/30 01:51:50;;;;;;;;;;;;;;;-11.27;79.92;102337.16;6173124;23;19920;-66
2022/11/30 01:54:18;;;;;;;;;;;;;;;-11.30;80.09;102337.28;6145564;23;19920;-65
2022/11/30 01:56:47;;;;;;;;;;;;;;;-11.31;80.02;102332.94;6148981;23;20243;-66
2022/11/30 01:59:13;;;;;;;;;;;;;;;-11.32;79.60;102334.72;6172417;23;19943;-66
2022/11/30 02:01:39;;;;;;;;;;;;;;;-11.32;79.85;102332.06;6183471;23;19924;-66
2022/11/30 02:04:10;;;;;;;;;;;;;;;-11.30;79.80;102335.50;6183456;23;19947;-67
2022/11/30 02:06:36;;;;;;;;;;;;;;;-11.30;79.95;102334.66;6149790;23;19920;-66
2022/11/30 02:09:02;;;;;;;;;;;;;;;-11.29;79.88;102326.63;6173405;23;19963;-65
2022/11/30 02:11:27;;;;;;;;;;;;;;;-11.28;79.95;102325.72;6172319;23;19920;-65
2022/11/30 02:14:00;;;;;;;;;;;;;;;-11.29;79.51;102323.16;6173172;23;20350;-65
2022/11/30 02:16:29;;;;;;;;;;;;;;;-11.32;79.65;102328.56;6173304;23;20387;-65
2022/11/30 02:19:02;;;;;;;;;;;;;;;-11.30;79.79;102321.44;6155036;23;20331;-66
2022/11/30 02:21:34;;;;;;;;;;;;;;;-11.30;79.90;102314.34;6175875;23;19920;-66
2022/11/30 02:24:18;;;;;;;;;;;;;;;-11.30;79.92;102324.09;6173335;23;19920;-66
2022/11/30 02:26:50;;;;;;;;;;;;;;;-11.31;80.08;102322.38;6176320;23;19920;-66
2022/11/30 02:29:20;;;;;;;;;;;;;;;-11.30;80.03;102313.50;6182316;23;19926;-65
2022/11/30 02:31:49;;;;;;;;;;;;;;;-11.28;80.08;102322.22;6183318;23;20437;-65
2022/11/30 02:34:16;;;;;;;;;;;;;;;-11.30;80.16;102322.28;6183517;23;20324;-65
2022/11/30 02:36:44;;;;;;;;;;;;;;;-11.30;79.82;102319.63;6171171;23;19924;-66
2022/11/30 02:39:10;;;;;;;;;;;;;;;-11.29;80.04;102315.22;6171255;23;20264;-66
2022/11/30 02:41:36;;;;;;;;;;;;;;;-11.30;79.94;102313.50;6205131;23;19927;-65
2022/11/30 02:44:03;;;;;;;;;;;;;;;-11.31;79.70;102317.94;6172201;23;19920;-66
2022/11/30 02:46:34;;;;;;;;;;;;;;;-11.36;79.61;102312.00;6196475;23;19928;-66
2022/11/30 02:49:04;;;;;;;;;;;;;;;-11.40;79.93;102306.00;6184398;23;20332;-66
2022/11/30 02:51:31;;;;;;;;;;;;;;;-11.41;79.96;102308.69;6148513;23;19920;-67
2022/11/30 02:53:57;;;;;;;;;;;;;;;-11.45;79.82;102308.00;6174234;23;20397;-68
2022/11/30 02:56:23;;;;;;;;;;;;;;;-11.49;79.48;102305.56;6173244;23;19920;-67
2022/11/30 02:58:50;;;;;;;;;;;;;;;-11.50;79.73;102304.69;6182369;23;20264;-68
2022/11/30 03:01:16;;;;;;;;;;;;;;;-11.50;79.84;102307.31;6183511;23;19920;-68
2022/11/30 03:03:43;;;;;;;;;;;;;;;-11.50;79.45;102307.31;6182968;23;19998;-68
2022/11/30 03:06:09;;;;;;;;;;;;;;;-11.50;79.50;102307.31;6174356;23;19928;-68
2022/11/30 03:08:35;;;;;;;;;;;;;;;-11.52;79.20;102308.34;6175957;23;19927;-68
2022/11/30 03:11:01;;;;;;;;;;;;;;;-11.56;79.60;102307.63;6186382;23;20007;-68
2022/11/30 03:13:27;;;;;;;;;;;;;;;-11.61;79.63;102310.47;6183560;23;19927;-68
2022/11/30 03:15:52;;;;;;;;;;;;;;;-11.64;79.66;102312.38;6175597;23;19920;-68
2022/11/30 03:18:18;;;;;;;;;;;;;;;-11.66;79.24;102315.09;6178637;23;19920;-68
2022/11/30 03:20:45;;;;;;;;;;;;;;;-11.70;79.18;102322.28;6174116;23;20363;-67
2022/11/30 03:23:11;;;;;;;;;;;;;;;-11.70;79.54;102316.16;6184387;23;20271;-68
2022/11/30 03:25:36;;;;;;;;;;;;;;;-11.76;79.22;102305.84;6158609;23;20006;-67
2022/11/30 03:28:03;;;;;;;;;;;;;;;-11.77;79.31;102306.78;6174022;23;19959;-67
2022/11/30 03:30:28;;;;;;;;;;;;;;;-11.75;79.24;102304.94;6146865;23;19920;-68
2022/11/30 03:32:54;;;;;;;;;;;;;;;-11.76;79.26;102308.50;6174284;23;19920;-68
2022/11/30 03:35:20;;;;;;;;;;;;;;;-11.89;79.41;102290.53;6186078;23;20403;-68
2022/11/30 03:37:47;;;;;;;;;;;;;;;-11.78;79.39;102312.97;6158537;23;19919;-66
2022/11/30 03:40:12;;;;;;;;;;;;;;;-11.77;79.42;102304.13;6174848;23;20463;-66
2022/11/30 03:42:38;;;;;;;;;;;;;;;-11.75;79.55;102311.06;6147824;23;19944;-65
2022/11/30 03:45:05;;;;;;;;;;;;;;;-11.74;79.26;102304.88;6149461;23;19920;-66
2022/11/30 03:47:30;;;;;;;;;;;;;;;-11.75;79.49;102311.06;6173490;23;20260;-68
2022/11/30 03:49:56;;;;;;;;;;;;;;;-11.75;79.28;102315.47;6172801;23;19947;-69
2022/11/30 03:52:22;;;;;;;;;;;;;;;-11.77;78.90;102306.78;6173454;23;20267;-68
2022/11/30 03:54:49;;;;;;;;;;;;;;;-11.80;79.05;102310.41;6185211;23;19920;-68
2022/11/30 03:57:14;;;;;;;;;;;;;;;-11.83;79.03;102308.78;6148015;23;19920;-68
2022/11/30 03:59:40;;;;;;;;;;;;;;;-11.86;79.26;102311.56;6185338;23;19974;-68
2022/11/30 04:02:06;;;;;;;;;;;;;;;-11.86;79.22;102311.56;6149667;23;19935;-68
2022/11/30 04:04:32;;;;;;;;;;;;;;;-11.89;79.25;102306.38;6159233;23;19927;-68
2022/11/30 04:06:57;;;;;;;;;;;;;;;-11.87;79.66;102309.81;6183304;23;19927;-66
2022/11/30 04:09:23;;;;;;;;;;;;;;;-11.87;79.48;102317.72;6123868;23;20257;-66
2022/11/30 04:11:50;;;;;;;;;;;;;;;-11.87;79.72;102320.38;6185113;23;19920;-66
2022/11/30 04:14:16;;;;;;;;;;;;;;;-11.85;79.40;102312.38;6148993;23;19927;-66
2022/11/30 04:16:42;;;;;;;;;;;;;;;-11.84;79.31;102314.97;6172080;23;19920;-66
2022/11/30 04:19:07;;;;;;;;;;;;;;;-11.84;79.27;102312.34;6147309;23;20386;-66
2022/11/30 04:21:33;;;;;;;;;;;;;;;-11.79;79.32;102312.13;6175140;23;19920;-66
2022/11/30 04:23:59;;;;;;;;;;;;;;;-11.78;79.52;102313.84;6148841;23;20248;-66
2022/11/30 04:26:25;;;;;;;;;;;;;;;-11.80;79.19;102307.75;6176480;23;19927;-66
2022/11/30 04:28:52;;;;;;;;;;;;;;;-11.85;79.23;102310.63;6145866;23;19927;-66
2022/11/30 04:31:18;;;;;;;;;;;;;;;-11.88;79.14;102304.63;6156322;23;19960;-66
2022/11/30 04:33:43;;;;;;;;;;;;;;;-11.92;79.43;102303.88;6186530;23;19920;-66
2022/11/30 04:36:14;;;;;;;;;;;;;;;-11.93;79.24;102302.16;6185669;23;19978;-65
2022/11/30 04:38:40;;;;;;;;;;;;;;;-11.94;79.31;102310.13;6173008;23;19943;-65
2022/11/30 04:41:06;;;;;;;;;;;;;;;-11.92;79.54;102318.88;6184651;23;19920;-68
2022/11/30 04:43:32;;;;;;;;;;;;;;;-11.92;79.86;102318.88;6184456;23;19927;-65
2022/11/30 04:45:59;;;;;;;;;;;;;;;-11.88;79.56;102317.81;6146978;23;19919;-66
2022/11/30 04:48:25;;;;;;;;;;;;;;;-11.86;79.61;102322.13;6175468;23;19999;-66
2022/11/30 04:50:51;;;;;;;;;;;;;;;-11.83;79.44;102319.34;6151534;23;20685;-66
2022/11/30 04:53:16;;;;;;;;;;;;;;;-11.96;79.62;102297.88;6184834;23;19926;-65
2022/11/30 04:55:42;;;;;;;;;;;;;;;-11.83;79.48;102321.97;6149525;23;19928;-66
2022/11/30 04:58:08;;;;;;;;;;;;;;;-11.84;79.67;102311.47;6175574;23;19974;-65
2022/11/30 05:00:34;;;;;;;;;;;;;;;-11.83;79.85;102327.25;6122521;23;19920;-65
2022/11/30 05:03:02;;;;;;;;;;;;;;;-11.83;79.83;102314.06;6149038;23;19970;-65
2022/11/30 05:05:28;;;;;;;;;;;;;;;-11.79;79.86;102321.84;6175133;23;19920;-65
2022/11/30 05:07:54;;;;;;;;;;;;;;;-11.79;79.84;102320.03;6148976;23;20307;-65
2022/11/30 05:10:20;;;;;;;;;;;;;;;-11.78;79.98;102331.47;6206214;23;19920;-65
2022/11/30 05:12:46;;;;;;;;;;;;;;;-11.77;79.78;102331.41;6175104;23;19927;-67
2022/11/30 05:15:12;;;;;;;;;;;;;;;-11.76;79.87;102321.69;6175431;23;19998;-67
2022/11/30 05:17:38;;;;;;;;;;;;;;;-11.71;80.27;102327.63;6148041;23;19931;-68
2022/11/30 05:20:05;;;;;;;;;;;;;;;-11.75;80.04;102329.56;6184631;23;19975;-70
2022/11/30 05:22:33;;;;;;;;;;;;;;;-11.75;79.67;102324.28;6159240;23;19943;-68
2022/11/30 05:24:59;;;;;;;;;;;;;;;-11.74;79.54;102320.72;6187062;23;19944;-67
2022/11/30 05:27:25;;;;;;;;;;;;;;;-11.71;79.83;102327.63;6187143;23;19935;-68
2022/11/30 05:29:51;;;;;;;;;;;;;;;-11.69;79.49;102320.50;6186417;23;19920;-68
2022/11/30 05:32:17;;;;;;;;;;;;;;;-11.69;79.06;102325.78;6147659;23;19920;-67
2022/11/30 05:34:43;;;;;;;;;;;;;;;-11.72;79.23;102325.91;6143859;23;19919;-68
2022/11/30 05:37:10;;;;;;;;;;;;;;;-11.71;79.22;102333.78;6172989;23;19920;-68
2022/11/30 05:39:35;;;;;;;;;;;;;;;-11.71;79.06;102338.19;6145988;23;19967;-65
2022/11/30 05:42:01;;;;;;;;;;;;;;;-11.72;79.21;102328.53;6141802;23;20291;-67
2022/11/30 05:44:27;;;;;;;;;;;;;;;-11.72;78.81;102336.47;6180496;23;20375;-67
2022/11/30 05:46:52;;;;;;;;;;;;;;;-11.71;79.16;102332.91;6177239;23;19920;-67
2022/11/30 05:49:18;;;;;;;;;;;;;;;-11.72;78.81;102336.47;6138660;23;20434;-67
2022/11/30 05:51:44;;;;;;;;;;;;;;;-11.66;78.76;102335.34;6110351;23;19919;-67
2022/11/30 05:54:12;;;;;;;;;;;;;;;-11.64;78.81;102342.28;6169097;23;19928;-66
2022/11/30 05:56:38;;;;;;;;;;;;;;;-11.58;78.84;102346.44;6176856;23;19943;-65
2022/11/30 05:59:03;;;;;;;;;;;;;;;-11.57;78.62;102346.34;6152332;23;19920;-65
2022/11/30 06:01:29;;;;;;;;;;;;;;;-11.57;78.69;102348.16;6179030;23;19974;-66
2022/11/30 06:03:55;;;;;;;;;;;;;;;-11.52;78.89;102355.88;6183750;23;19952;-65
2022/11/30 06:06:21;;;;;;;;;;;;;;;-11.47;78.28;102352.13;6208816;23;19920;-68
2022/11/30 06:08:49;;;;;;;;;;;;;;;-11.39;78.07;102357.06;6144030;23;19927;-68
2022/11/30 06:11:22;;;;;;;;;;;;;;;-11.33;77.99;102351.50;6153898;23;19924;-65
2022/11/30 06:13:47;;;;;;;;;;;;;;;-11.29;78.16;102346.94;6134151;23;19920;-67
2022/11/30 06:16:13;;;;;;;;;;;;;;;-11.28;77.72;102351.28;6171307;23;19920;-67
2022/11/30 06:18:39;;;;;;;;;;;;;;;-11.25;77.60;102357.25;6178846;23;19943;-68
2022/11/30 06:21:06;;;;;;;;;;;;;;;-11.23;77.60;102349.28;6176058;23;19919;-68
2022/11/30 06:23:32;;;;;;;;;;;;;;;-11.25;77.35;102362.56;6165579;23;20318;-68
2022/11/30 06:26:01;;;;;;;;;;;;;;;-11.27;77.22;102366.22;6158319;23;19951;-68
2022/11/30 06:28:28;;;;;;;;;;;;;;;-11.29;77.25;102368.06;6179342;23;20256;-68
2022/11/30 06:30:56;;;;;;;;;;;;;;;-11.23;77.25;102369.59;6146881;23;19924;-68
2022/11/30 06:33:22;;;;;;;;;;;;;;;-11.17;77.21;102371.94;6171792;23;20323;-68
2022/11/30 06:35:48;;;;;;;;;;;;;;;-11.18;77.20;102368.41;6172878;23;19974;-67
2022/11/30 06:38:14;;;;;;;;;;;;;;;-11.16;77.15;102376.28;6175530;23;20292;-65
2022/11/30 06:40:40;;;;;;;;;;;;;;;-11.05;77.20;102367.88;6148183;23;19927;-65
2022/11/30 06:43:06;;;;;;;;;;;;;;;-10.86;77.02;102373.16;6126643;23;19974;-66
2022/11/30 06:45:33;;;;;;;;;;;;;;;-10.72;76.22;102372.50;6175710;23;20409;-65
2022/11/30 06:47:58;;;;;;;;;;;;;;;-10.60;75.85;102376.38;6186495;23;19927;-65
2022/11/30 06:50:24;;;;;;;;;;;;;;;-10.49;75.44;102379.34;6174956;23;20308;-65
2022/11/30 06:52:50;;;;;;;;;;;;;;;-10.41;75.38;102382.50;6147984;23;19927;-65
2022/11/30 06:55:15;;;;;;;;;;;;;;;-10.28;75.14;102377.44;6160024;23;20321;-65
2022/11/30 06:57:41;;;;;;;;;;;;;;;-10.16;74.81;102375.97;6177422;23;19920;-67
2022/11/30 07:00:08;;;;;;;;;;;;;;;-10.08;74.25;102367.63;6184575;23;19920;-68
2022/11/30 07:02:35;;;;;;;;;;;;;;;-10.03;74.02;102370.06;6177640;23;19956;-67
2022/11/30 07:05:01;;;;;;;;;;;;;;;-9.98;73.50;102371.56;6146828;23;19975;-68
2022/11/30 07:07:27;;;;;;;;;;;;;;;-9.92;73.50;102372.16;6189009;23;20279;-66
2022/11/30 07:09:53;;;;;;;;;;;;;;;-9.80;73.52;102373.34;6169368;23;19961;-65
2022/11/30 07:12:18;;;;;;;;;;;;;;;-9.76;72.79;102375.75;6175295;23;20264;-65
2022/11/30 07:14:44;;;;;;;;;;;;;;;-9.74;72.10;102381.84;6167718;23;19951;-67
2022/11/30 07:17:10;;;;;;;;;;;;;;;-9.74;72.22;102388.91;6177158;23;19924;-66
2022/11/30 07:19:37;;;;;;;;;;;;;;;-9.70;72.07;102386.03;6142543;23;19927;-66
2022/11/30 07:22:03;;;;;;;;;;;;;;;-9.57;71.91;102386.25;6179398;23;19919;-67
2022/11/30 07:27:13;;;;;;;;;;;;;;;-9.40;71.68;102374.78;6176358;23;19982;-66
2022/11/30 07:29:39;;;;;;;;;;;;;;;-9.22;71.41;102381.84;6159324;23;20348;-68
2022/11/30 07:32:05;;;;;;;;;;;;;;;-9.11;70.93;102382.13;6184130;23;19954;-68
2022/11/30 07:34:31;;;;;;;;;;;;;;;-9.08;70.61;102381.97;6151903;23;19920;-68
2022/11/30 07:36:58;;;;;;;;;;;;;;;-9.04;70.71;102386.19;6185361;23;20260;-68
2022/11/30 07:39:24;;;;;;;;;;;;;;;-9.01;70.59;102386.00;6148542;23;20984;-67
2022/11/30 07:41:49;;;;;;;;;;;;;;;-8.95;70.39;102374.22;6147930;23;19920;-66
2022/11/30 07:44:17;;;;;;;;;;;;;;;-9.01;70.17;102370.09;6147510;23;19920;-67
2022/11/30 07:46:42;;;;;;;;;;;;;;;-8.92;70.08;102383.78;6185093;23;19931;-66
2022/11/30 07:49:08;;;;;;;;;;;;;;;-8.92;70.38;102384.66;6178154;23;20042;-66
2022/11/30 07:51:35;;;;;;;;;;;;;;;-8.89;70.23;102391.59;6189021;23;19927;-65
2022/11/30 07:54:03;;;;;;;;;;;;;;;-8.82;70.33;102392.97;6188301;23;19924;-68
2022/11/30 07:56:28;;;;;;;;;;;;;;;-8.77;70.33;102390.91;6188444;23;19919;-68
2022/11/30 07:58:58;;;;;;;;;;;;;;;-8.70;70.25;102389.63;6176123;23;20279;-69
2022/11/30 08:01:25;;;;;;;;;;;;;;;-8.70;70.33;102389.63;6184850;23;20348;-68
2022/11/30 08:03:51;;;;;;;;;;;;;;;-8.82;70.56;102366.44;6148515;23;20002;-68
2022/11/30 08:06:19;;;;;;;;;;;;;;;-8.62;70.49;102388.34;6188570;23;19944;-68
2022/11/30 08:08:45;;;;;;;;;;;;;;;-8.67;70.51;102385.94;6184467;23;20252;-68
2022/11/30 08:11:13;;;;;;;;;;;;;;;-8.63;70.73;102386.63;6184825;23;20335;-67
2022/11/30 08:13:38;;;;;;;;;;;;;;;-8.61;70.85;102384.75;6151518;23;19920;-66
2022/11/30 08:16:05;;;;;;;;;;;;;;;-8.57;71.21;102381.84;6183042;23;19927;-65
2022/11/30 08:18:31;;;;;;;;;;;;;;;-8.50;70.79;102384.16;6172979;23;19927;-66
2022/11/30 08:20:57;;;;;;;;;;;;;;;-8.48;70.91;102384.91;6148138;23;19920;-66
2022/11/30 08:23:23;;;;;;;;;;;;;;;-8.41;70.86;102379.16;6148691;23;20299;-66
2022/11/30 08:25:48;;;;;;;;;;;;;;;-8.34;70.71;102381.47;6177563;23;20260;-66
2022/11/30 08:28:15;;;;;;;;;;;;;;;-8.24;70.49;102380.00;6161312;23;20283;-66
2022/11/30 08:30:41;;;;;;;;;;;;;;;-8.13;69.98;102380.22;6151177;23;19948;-66
2022/11/30 08:33:07;;;;;;;;;;;;;;;-8.08;70.17;102379.94;6158915;23;20014;-66
2022/11/30 08:35:32;;;;;;;;;;;;;;;-7.99;69.95;102379.44;6174117;23;19920;-68
2022/11/30 08:37:59;;;;;;;;;;;;;;;-7.79;69.90;102372.09;6157931;23;19923;-68
2022/11/30 08:40:24;;;;;;;;;;;;;;;-7.62;69.74;102370.22;6185350;23;19920;-68
2022/11/30 08:42:50;;;;;;;;;;;;;;;-7.45;69.46;102369.22;6175616;23;20015;-66
2022/11/30 08:45:17;;;;;;;;;;;;;;;-7.34;68.75;102365.88;6174056;23;19942;-66
2022/11/30 08:47:43;;;;;;;;;;;;;;;-7.27;68.57;102383.16;6184344;23;19920;-66
2022/11/30 08:50:09;;;;;;;;;;;;;;;-7.20;68.47;102370.34;6173425;23;19967;-66
2022/11/30 08:52:34;;;;;;;;;;;;;;;-7.13;68.42;102374.34;6155153;23;19919;-68
2022/11/30 08:55:00;;;;;;;;;;;;;;;-7.05;68.10;102369.41;6182437;23;19924;-68
2022/11/30 08:57:26;;;;;;;;;;;;;;;-7.06;68.42;102367.69;6182844;23;19920;-68
2022/11/30 08:59:51;;;;;;;;;;;;;;;-7.04;68.12;102363.13;6155695;23;19920;-68
2022/11/30 09:02:19;;;;;;;;;;;;;;;-7.05;67.83;102361.41;6208015;23;19920;-68
2022/11/30 09:04:46;;;;;;;;;;;;;;;-7.14;67.58;102367.31;6176072;23;20370;-68
2022/11/30 09:07:12;;;;;;;;;;;;;;;-7.14;68.11;102362.00;6184116;23;19943;-68
2022/11/30 09:09:38;;;;;;;;;;;;;;;-7.19;67.94;102367.59;6186702;23;19920;-68
2022/11/30 09:12:03;;;;;;;;;;;;;;;-7.28;67.94;102360.19;6176005;23;20275;-68
2022/11/30 09:14:29;;;;;;;;;;;;;;;-7.37;68.32;102369.59;6175475;23;20228;-68
2022/11/30 09:16:55;;;;;;;;;;;;;;;-7.46;68.15;102360.38;6185231;23;19959;-68
2022/11/30 09:19:24;;;;;;;;;;;;;;;-7.45;68.82;102356.75;6176627;23;19924;-66
2022/11/30 09:21:50;;;;;;;;;;;;;;;-7.39;68.63;102363.50;6176606;23;19920;-66
2022/11/30 09:24:16;;;;;;;;;;;;;;;-7.48;68.77;102359.59;6176542;23;19990;-66
2022/11/30 09:26:41;;;;;;;;;;;;;;;-7.42;69.11;102356.56;6149733;23;19951;-66
2022/11/30 09:29:07;;;;;;;;;;;;;;;-7.22;69.44;102361.63;6146427;23;19920;-66
2022/11/30 09:31:33;;;;;;;;;;;;;;;-6.99;69.14;102352.19;6186554;23;19998;-66
2022/11/30 09:33:59;;;;;;;;;;;;;;;-6.96;68.62;102357.31;6184477;23;20271;-68
2022/11/30 09:36:27;;;;;;;;;;;;;;;-6.98;68.75;102362.75;6185413;23;20253;-68
2022/11/30 09:38:53;;;;;;;;;;;;;;;-7.08;69.07;102355.47;6157318;23;19919;-68
2022/11/30 09:41:28;;;;;;;;;;;;;;;-7.13;69.60;102366.38;6176113;23;20260;-68
2022/11/30 09:43:58;;;;;;;;;;;;;;;-7.19;70.12;102354.31;6177394;23;19943;-68
2022/11/30 09:46:27;;;;;;;;;;;;;;;-7.23;70.44;102349.28;6162617;23;20435;-68
2022/11/30 09:48:56;;;;;;;;;;;;;;;-7.26;70.58;102352.97;6175459;23;20320;-68
2022/11/30 09:51:24;;;;;;;;;;;;;;;-7.45;70.88;102351.44;6172828;23;19920;-68
2022/11/30 09:53:53;;;;;;;;;;;;;;;-7.59;71.63;102354.94;6173796;23;19920;-68
2022/11/30 09:56:22;;;;;;;;;;;;;;;-7.71;72.11;102353.03;6182657;23;20347;-68
2022/11/30 09:58:52;;;;;;;;;;;;;;;-7.79;72.78;102348.16;6175853;23;19920;-68
2022/11/30 10:01:19;;;;;;;;;;;;;;;-7.78;73.12;102343.72;6176319;23;20256;-67
2022/11/30 10:03:44;;;;;;;;;;;;;;;-7.71;73.28;102342.41;6160657;23;19919;-68
2022/11/30 10:06:15;;;;;;;;;;;;;;;-7.55;73.05;102352.97;6188796;23;19931;-68
2022/11/30 10:08:46;;;;;;;;;;;;;;;-7.49;72.97;102343.75;6186538;23;19924;-68
2022/11/30 10:11:23;;;;;;;;;;;;;;;-7.48;73.00;102348.97;6178934;23;19920;-66
2022/11/30 10:13:55;;;;;;;;;;;;;;;-7.48;73.13;102351.63;6176904;23;19926;-66
2022/11/30 10:16:30;;;;;;;;;;;;;;;-7.50;73.44;102352.66;6184504;23;19935;-66
2022/11/30 10:18:59;;;;;;;;;;;;;;;-7.50;73.53;102348.22;6184839;23;19974;-68
2022/11/30 10:21:31;;;;;;;;;;;;;;;-7.50;73.60;102347.34;6177955;23;19927;-68
2022/11/30 10:24:03;;;;;;;;;;;;;;;-7.48;73.89;102354.28;6185432;23;20268;-68
2022/11/30 10:26:32;;;;;;;;;;;;;;;-7.41;74.06;102349.47;6160542;23;20336;-66
2022/11/30 10:29:03;;;;;;;;;;;;;;;-7.32;74.01;102346.25;6147956;23;20007;-66
2022/11/30 10:31:31;;;;;;;;;;;;;;;-7.28;73.85;102342.44;6195793;23;20212;-66
2022/11/30 10:34:02;;;;;;;;;;;;;;;-7.18;74.22;102348.03;6181968;23;20344;-66
2022/11/30 10:36:32;;;;;;;;;;;;;;;-7.13;73.90;102339.78;6172550;23;19920;-66
2022/11/30 10:38:59;;;;;;;;;;;;;;;-7.09;73.72;102341.28;6184708;23;20409;-66
2022/11/30 10:41:28;;;;;;;;;;;;;;;-7.01;73.89;102340.81;6150127;23;19927;-66
2022/11/30 10:43:58;;;;;;;;;;;;;;;-6.88;73.56;102340.88;6184757;23;20264;-66
2022/11/30 10:46:27;;;;;;;;;;;;;;;-6.60;73.39;102341.75;6158082;23;19927;-66
2022/11/30 10:48:55;;;;;;;;;;;;;;;-6.39;72.51;102338.69;6177636;23;19920;-66
2022/11/30 10:51:21;;;;;;;;;;;;;;;-6.10;71.86;102339.41;6151225;23;19924;-66
2022/11/30 10:53:47;;;;;;;;;;;;;;;-5.80;71.01;102335.59;6176081;23;19920;-66
2022/11/30 10:56:13;;;;;;;;;;;;;;;-5.44;69.87;102323.31;6185125;23;20077;-68
2022/11/30 10:58:44;;;;;;;;;;;;;;;-5.07;68.83;102325.22;6153276;23;20255;-68
2022/11/30 11:01:27;;;;;;;;;;;;;;;-4.36;67.43;102323.72;6189773;23;19920;-68
2022/11/30 11:04:05;;;;;;;;;;;;;;;-3.53;65.40;102324.53;6189265;23;19958;-68
2022/11/30 11:06:32;;;;;;;;;;;;;;;-3.01;62.83;102326.78;6180051;23;19924;-68
2022/11/30 11:08:57;;;;;;;;;;;;;;;-2.72;62.27;102329.75;6150121;23;19931;-68
2022/11/30 11:11:31;;;;;;;;;;;;;;;-2.21;61.04;102326.56;6152097;23;19920;-68
2022/11/30 11:14:07;;;;;;;;;;;;;;;-1.83;59.23;102322.47;6174948;23;20315;-68
2022/11/30 11:16:47;;;;;;;;;;;;;;;-1.57;57.97;102322.09;6147966;23;20435;-68
2022/11/30 11:19:21;;;;;;;;;;;;;;;-1.33;56.74;102323.59;6190565;23;19920;-68
2022/11/30 11:21:48;;;;;;;;;;;;;;;-0.95;56.22;102327.44;6185983;23;19927;-69
2022/11/30 11:24:18;;;;;;;;;;;;;;;-0.32;55.77;102314.69;6175087;23;19982;-69
2022/11/30 11:26:47;;;;;;;;;;;;;;;0.39;53.53;102321.56;6174642;23;20341;-68
2022/11/30 11:29:30;;;;;;;;;;;;;;;0.75;52.17;102320.03;6160563;23;20405;-67
2022/11/30 11:32:07;;;;;;;;;;;;;;;1.11;51.57;102318.31;6184853;23;19943;-69
2022/11/30 11:34:33;;;;;;;;;;;;;;;1.46;50.71;102315.84;6186646;23;19970;-69
2022/11/30 11:37:06;;;;;;;;;;;;;;;1.67;49.74;102326.34;6160096;23;19920;-70
2022/11/30 11:39:32;;;;;;;;;;;;;;;1.39;50.28;102321.00;6184899;23;19967;-70
2022/11/30 11:41:58;;;;;;;;;;;;;;;1.33;48.79;102328.84;6148161;23;19924;-67
2022/11/30 11:44:26;;;;;;;;;;;;;;;0.89;49.71;102330.31;6177634;23;19943;-67
2022/11/30 11:46:56;;;;;;;;;;;;;;;0.49;50.87;102324.22;6186372;23;20007;-67
2022/11/30 11:49:24;;;;;;;;;;;;;;;0.31;52.96;102324.13;6185200;23;19920;-67
2022/11/30 11:51:59;;;;;;;;;;;;;;;0.65;53.22;102329.03;6185536;23;19943;-69
2022/11/30 11:54:28;;;;;;;;;;;;;;;0.55;53.30;102326.34;6158623;23;19920;-69
2022/11/30 11:56:54;;;;;;;;;;;;;;;0.37;53.25;102326.25;6159413;23;19951;-69
2022/11/30 11:59:25;;;;;;;;;;;;;;;0.47;53.23;102326.22;6148873;23;20335;-69
2022/11/30 12:01:56;;;;;;;;;;;;;;;0.48;52.89;102300.16;6127293;23;20410;-69
2022/11/30 12:04:36;;;;;;;;;;;;;;;0.81;52.19;102322.16;6151463;23;20058;-69
2022/11/30 12:07:04;;;;;;;;;;;;;;;0.48;51.57;102322.53;6175782;23;19920;-69
2022/11/30 12:09:32;;;;;;;;;;;;;;;-0.15;51.39;102324.75;6187117;23;19935;-69
2022/11/30 12:11:58;;;;;;;;;;;;;;;-1.07;53.04;102328.53;6147114;23;19920;-69
2022/11/30 12:14:24;;;;;;;;;;;;;;;-1.64;54.59;102326.25;6158320;23;20409;-69
2022/11/30 12:16:59;;;;;;;;;;;;;;;-2.13;55.06;102334.81;6149001;23;19927;-69
2022/11/30 12:19:30;;;;;;;;;;;;;;;-2.81;56.43;102335.00;6177635;23;19920;-69
2022/11/30 12:22:02;;;;;;;;;;;;;;;-3.28;57.54;102338.69;6153255;23;20013;-66
2022/11/30 12:24:45;;;;;;;;;;;;;;;-3.74;58.60;102329.75;6185046;23;19967;-67
2022/11/30 12:27:15;;;;;;;;;;;;;;;-4.24;59.58;102330.78;6187610;23;19924;-69
2022/11/30 12:29:44;;;;;;;;;;;;;;;-4.84;60.95;102336.91;6184173;23;19920;-66
2022/11/30 12:32:18;;;;;;;;;;;;;;;-5.33;62.26;102338.56;6186296;23;20220;-67
2022/11/30 12:34:54;;;;;;;;;;;;;;;-5.79;63.56;102342.63;6174759;23;20015;-67